Victoria International Airport
CYYJ : rendu visible

Aérodrome :











RETROUVEZ-NOUS SUR...

 
LOGIN :

S'inscrire | Disclaimer

   EN    FR    IT 

 









Légende :    VFR   VFR Marginal   IFR   IFR Intensif   IFR Très Intensif
Visi : 
Plafond : 
>= 8 km
>= 3000ft
5 à 8 km
1000 à 3000 ft
1500m à 5 km
500 à 1000 ft
800 à 1500m
200 à 500 ft
< 800m
< 200 ft
Symboles :   Orages  Brouillard  Fortes neiges  Fortes précipitations  Vent > 20 kt






- Altitude de l'aérodrome : 63 ft
- Code IATA : YYJ


CYYJ - Victoria International

DERNIER METAR :
  • 180800Z 07006KT 060V120 15SM FEW025 BKN042 OVC075 04/M01 A3004 RMK SC2SC5AC1 SLP174

METARs EXPIRÉS :
  • 180700Z 11011G17KT 15SM BKN027 BKN045 OVC073 05/M00 A3005 RMK SC5SC2AC1 SLP177
  • 180600Z 08008KT 15SM BKN027 BKN035 OVC050 04/01 A3006 RMK SC6SC1SC1 SLP182

TAF TAF CYYJ
Valide du 18 à 06h jusqu'au 19 à 06h UTC


180540Z 1806/1906 10012G22KT P6SM -RA OVC025
TEMPO 1806/1816 4SM -RA BR SCT004 OVC008
BECMG 1808/1810 14015G30KT
FM181600 14015G25KT P6SM OVC030
TEMPO 1816/1902 P6SM -SHRA OVC020
FM190200 14008KT P6SM BKN040 OVC080 RMK NXT FCST BY 181200Z



MET'MAP, la Météo Aéronautique d'un coup d'oeil ! - Copyright ORBIFLY Décembre 2007 - Disclaimer

ORBIFLY MET'MAP TEAM :

Programmation & Développement : Alexandra Zaïnal
Sur une idée originale de : Baudouin d'Aumeries
Assistance à la programmation : Marc-Olivier Méhu
Soutien technique & logistique : Manuel Goepfert

Contact : metmap@orbifly.com




SOURCES & CREDITS :

   NOAA       Earth
Advisory